Terminal Aerodrome Forecast
Issued by NWS Grand Forks, ND

Home | Current Version | Previous Version | Graphics & Text | Print | Product List | Glossary On
Versions: 1 2 3 4 5 6 7 8 9 10 11 12 13 14 15 16 17 18 19
703
FTUS43 KFGF 270520
TAFFAR
TAF
KFAR 270520Z 2706/2806 VRB03KT P6SM VCTS SCT120CB BKN250
     FM270800 VRB03KT P6SM SCT120 BKN250
     FM271400 12005KT P6SM BKN200
     FM271600 12005KT P6SM VCSH BKN080=

USA.gov is the U.S. government's official web portal to all federal, state and local government web resources and services.